createdAt,value
2023-05-06T00:02:05.923Z,15.60
2023-05-06T00:04:34.151Z,15.50
2023-05-06T00:07:02.321Z,15.60
2023-05-06T00:09:31.491Z,15.40
2023-05-06T00:11:59.312Z,15.20
2023-05-06T00:14:27.003Z,15.80
2023-05-06T00:16:54.698Z,15.60
2023-05-06T00:19:22.574Z,15.20
2023-05-06T00:21:50.336Z,15.50
2023-05-06T00:24:18.078Z,15.60
2023-05-06T00:26:47.094Z,15.50
2023-05-06T00:29:14.878Z,15.50
2023-05-06T00:31:42.642Z,15.10
2023-05-06T00:34:10.397Z,15.20
2023-05-06T00:36:38.199Z,15.70
2023-05-06T00:39:06.474Z,15.40
2023-05-06T00:41:34.393Z,15.40
2023-05-06T00:44:03.491Z,15.70
2023-05-06T00:46:31.340Z,15.80
2023-05-06T00:48:59.366Z,15.60
2023-05-06T00:51:27.659Z,15.80
2023-05-06T00:53:56.632Z,15.70
2023-05-06T00:56:24.767Z,15.70
2023-05-06T00:58:52.730Z,15.30
2023-05-06T01:01:22.751Z,15.50
2023-05-06T01:03:51.931Z,15.40
2023-05-06T01:06:26.179Z,15.60
2023-05-06T01:08:59.496Z,15.50
2023-05-06T01:11:35.188Z,15.60
2023-05-06T01:14:09.009Z,15.60
2023-05-06T01:16:42.075Z,15.50
2023-05-06T01:19:13.552Z,14.90
2023-05-06T01:21:45.293Z,15.40
2023-05-06T01:24:14.451Z,15.60
2023-05-06T01:26:42.842Z,15.50
2023-05-06T01:29:12.330Z,15.40
2023-05-06T01:31:51.126Z,15.50
2023-05-06T01:34:27.534Z,15.20
2023-05-06T01:37:06.583Z,15.30
2023-05-06T01:39:35.940Z,15.10
2023-05-06T01:42:04.483Z,14.70
2023-05-06T01:44:34.961Z,15.20
2023-05-06T01:47:02.933Z,15.00
2023-05-06T01:49:31.402Z,15.10
2023-05-06T01:51:59.108Z,15.10
2023-05-06T01:54:26.880Z,15.10
2023-05-06T01:56:55.972Z,15.20
2023-05-06T01:59:23.652Z,15.00
2023-05-06T02:01:51.447Z,14.80
2023-05-06T02:04:19.261Z,15.10
2023-05-06T02:06:47.070Z,15.00
2023-05-06T02:09:14.819Z,14.90
2023-05-06T02:11:42.661Z,14.80
2023-05-06T02:14:11.703Z,14.50
2023-05-06T02:16:39.549Z,14.90
2023-05-06T02:19:07.384Z,14.70
2023-05-06T02:21:35.131Z,14.30
2023-05-06T02:24:02.849Z,14.70
2023-05-06T02:26:30.588Z,15.00
2023-05-06T02:28:58.282Z,14.60
2023-05-06T02:31:27.464Z,14.70
2023-05-06T02:33:55.353Z,14.50
2023-05-06T02:36:23.155Z,14.90
2023-05-06T02:38:50.911Z,14.40
2023-05-06T02:41:18.624Z,14.50
2023-05-06T02:43:46.343Z,14.70
2023-05-06T02:46:14.068Z,14.50
2023-05-06T02:48:43.306Z,14.30
2023-05-06T02:51:11.399Z,14.40
2023-05-06T02:53:39.096Z,14.70
2023-05-06T02:56:07.262Z,14.30
2023-05-06T02:58:34.979Z,14.40
2023-05-06T03:01:02.835Z,14.20
2023-05-06T03:03:30.636Z,14.10
2023-05-06T03:05:59.802Z,14.20
2023-05-06T03:08:27.593Z,14.30
2023-05-06T03:10:55.345Z,13.80
2023-05-06T03:13:23.289Z,14.00
2023-05-06T03:15:53.724Z,14.30
2023-05-06T03:18:21.605Z,14.30
2023-05-06T03:20:50.107Z,14.20
2023-05-06T03:23:19.182Z,14.30
2023-05-06T03:25:46.873Z,14.30
2023-05-06T03:28:14.602Z,14.30
2023-05-06T03:30:42.435Z,14.30
2023-05-06T03:33:10.227Z,13.80
2023-05-06T03:35:37.970Z,14.30
2023-05-06T03:38:05.720Z,14.20
2023-05-06T03:40:34.925Z,14.30
2023-05-06T03:43:02.800Z,13.70
2023-05-06T03:45:30.610Z,14.40
2023-05-06T03:47:58.669Z,13.70
2023-05-06T03:50:26.797Z,14.00
2023-05-06T03:52:54.670Z,13.70
2023-05-06T03:55:22.403Z,14.20
2023-05-06T03:57:51.454Z,14.00
2023-05-06T04:00:19.219Z,14.20
2023-05-06T04:02:46.948Z,14.00
2023-05-06T04:05:14.749Z,14.20
2023-05-06T04:07:42.581Z,13.90
2023-05-06T04:10:10.988Z,13.70
2023-05-06T04:12:38.798Z,14.20
2023-05-06T04:15:09.566Z,14.00
2023-05-06T04:17:37.515Z,13.90
2023-05-06T04:20:11.122Z,14.10
2023-05-06T04:22:39.056Z,14.20
2023-05-06T04:25:08.387Z,14.00
2023-05-06T04:27:36.364Z,14.00
2023-05-06T04:30:04.212Z,14.10
2023-05-06T04:32:33.925Z,13.90
2023-05-06T04:35:01.753Z,13.90
2023-05-06T04:37:30.809Z,14.10
2023-05-06T04:39:58.615Z,13.80
2023-05-06T04:42:26.414Z,14.10
2023-05-06T04:44:54.200Z,13.90
2023-05-06T04:47:22.021Z,13.90
2023-05-06T04:49:51.144Z,14.00
2023-05-06T04:52:18.844Z,14.20
2023-05-06T04:54:46.598Z,14.40
2023-05-06T04:57:14.350Z,14.40
2023-05-06T04:59:42.461Z,14.40
2023-05-06T05:02:10.241Z,14.20
2023-05-06T05:04:38.270Z,14.50
2023-05-06T05:07:07.844Z,13.90
2023-05-06T05:09:35.860Z,14.50
2023-05-06T05:12:03.712Z,14.40
2023-05-06T05:14:31.519Z,14.70
2023-05-06T05:16:59.326Z,14.60
2023-05-06T05:19:27.126Z,14.80
2023-05-06T05:21:54.824Z,14.30
2023-05-06T05:24:23.991Z,14.70
2023-05-06T05:26:51.681Z,14.70
2023-05-06T05:29:19.457Z,14.50
2023-05-06T05:31:47.241Z,15.00
2023-05-06T05:34:15.128Z,15.10
2023-05-06T05:36:42.880Z,14.90
2023-05-06T05:39:10.683Z,15.40
2023-05-06T05:41:39.732Z,15.50
2023-05-06T05:44:07.778Z,15.30
2023-05-06T05:46:35.911Z,15.50
2023-05-06T05:49:03.679Z,15.40
2023-05-06T05:51:31.373Z,16.10
2023-05-06T05:53:59.138Z,15.90
2023-05-06T05:56:27.022Z,16.40
2023-05-06T05:58:56.288Z,16.50
2023-05-06T06:01:24.064Z,16.60
2023-05-06T06:03:52.326Z,16.40
2023-05-06T06:06:20.325Z,16.40
2023-05-06T06:08:48.122Z,16.40
2023-05-06T06:11:15.918Z,16.90
2023-05-06T06:13:43.764Z,16.70
2023-05-06T06:16:13.155Z,17.00
2023-05-06T06:18:40.987Z,17.20
2023-05-06T06:21:08.712Z,17.30
2023-05-06T06:23:36.482Z,17.10
2023-05-06T06:26:04.597Z,17.60
2023-05-06T06:28:32.367Z,17.40
2023-05-06T06:31:00.224Z,18.00
2023-05-06T06:33:29.376Z,18.20
2023-05-06T06:35:59.204Z,18.40
2023-05-06T06:38:27.096Z,19.00
2023-05-06T06:40:54.904Z,20.90
2023-05-06T06:43:23.738Z,22.40
2023-05-06T06:45:51.970Z,22.80
2023-05-06T06:48:20.268Z,23.10
2023-05-06T06:50:49.313Z,23.90
2023-05-06T06:53:18.361Z,24.00
2023-05-06T06:55:46.661Z,23.80
2023-05-06T06:58:14.522Z,23.80
2023-05-06T07:00:42.231Z,24.20
2023-05-06T07:03:09.989Z,24.20
2023-05-06T07:05:37.926Z,24.10
2023-05-06T07:08:07.040Z,23.60
2023-05-06T07:10:35.783Z,23.50
2023-05-06T07:13:03.545Z,23.50
2023-05-06T07:15:31.373Z,23.80
2023-05-06T07:17:59.143Z,23.80
2023-05-06T07:20:27.048Z,24.90
2023-05-06T07:22:54.814Z,25.90
2023-05-06T07:25:23.883Z,26.40
2023-05-06T07:27:51.619Z,27.10
2023-05-06T07:30:22.881Z,27.50
2023-05-06T07:32:51.272Z,28.00
2023-05-06T07:35:19.188Z,28.20
2023-05-06T07:37:47.564Z,27.90
2023-05-06T07:40:15.408Z,27.90
2023-05-06T07:42:44.673Z,26.70
2023-05-06T07:45:12.920Z,26.90
2023-05-06T07:47:40.960Z,27.10
2023-05-06T07:50:10.484Z,27.90
2023-05-06T07:52:38.426Z,28.00
2023-05-06T07:55:09.086Z,28.50
2023-05-06T07:57:37.253Z,28.30
2023-05-06T08:00:09.864Z,28.40
2023-05-06T08:02:44.844Z,28.30
2023-05-06T08:05:14.898Z,27.90
2023-05-06T08:07:45.680Z,28.30
2023-05-06T08:10:15.608Z,28.80
2023-05-06T08:12:45.263Z,28.50
2023-05-06T08:15:16.958Z,28.70
2023-05-06T08:17:46.759Z,28.00
2023-05-06T08:20:16.583Z,27.30
